createdAt,value
2023-03-26T00:01:42.180Z,26.30
2023-03-26T00:04:10.572Z,26.34
2023-03-26T00:06:40.447Z,26.37
2023-03-26T00:09:11.214Z,26.42
2023-03-26T00:11:39.638Z,26.47
2023-03-26T00:14:07.972Z,26.54
2023-03-26T00:16:36.728Z,26.61
2023-03-26T00:19:05.599Z,26.68
2023-03-26T00:21:34.148Z,26.75
2023-03-26T00:24:09.359Z,26.80
2023-03-26T00:26:39.491Z,26.89
2023-03-26T00:29:09.292Z,26.96
2023-03-26T00:31:42.007Z,27.04
2023-03-26T00:34:11.470Z,27.14
2023-03-26T00:36:39.813Z,27.21
2023-03-26T00:39:08.149Z,27.29
2023-03-26T00:41:37.850Z,27.37
2023-03-26T00:44:06.432Z,27.46
2023-03-26T00:46:34.970Z,27.52
2023-03-26T00:49:04.899Z,27.59
2023-03-26T00:51:34.803Z,27.66
2023-03-26T00:54:03.356Z,27.74
2023-03-26T00:56:32.681Z,27.80
2023-03-26T00:59:01.412Z,27.86
2023-03-26T01:01:31.430Z,27.92
2023-03-26T01:04:20.812Z,27.98
2023-03-26T01:06:49.593Z,28.04
2023-03-26T01:09:20.593Z,28.10
2023-03-26T01:11:51.262Z,28.17
2023-03-26T01:14:24.565Z,28.25
2023-03-26T01:17:02.505Z,28.33
2023-03-26T01:19:45.996Z,28.39
2023-03-26T01:22:23.364Z,28.47
2023-03-26T01:24:57.376Z,28.55
2023-03-26T01:27:44.282Z,28.63
2023-03-26T01:30:12.734Z,28.71
2023-03-26T01:33:00.137Z,28.79
2023-03-26T01:35:34.487Z,28.87
2023-03-26T01:38:39.885Z,28.95
2023-03-26T01:41:11.763Z,29.04
2023-03-26T01:44:05.090Z,29.10
2023-03-26T01:46:38.295Z,29.18
2023-03-26T01:49:13.920Z,29.25
2023-03-26T01:51:44.122Z,29.33
2023-03-26T01:54:17.913Z,29.41
2023-03-26T01:56:59.180Z,29.49
2023-03-26T01:59:51.808Z,29.58
2023-03-26T02:02:39.679Z,29.67
2023-03-26T02:05:20.109Z,29.74
2023-03-26T02:07:53.364Z,29.82
2023-03-26T02:10:25.361Z,29.90
2023-03-26T02:12:54.560Z,30.00
2023-03-26T02:15:23.610Z,30.07
2023-03-26T02:17:53.812Z,30.17
2023-03-26T02:20:22.694Z,30.24
2023-03-26T02:22:51.107Z,30.33
2023-03-26T02:25:21.477Z,30.42
2023-03-26T02:27:51.801Z,30.52
2023-03-26T02:30:27.665Z,30.59
2023-03-26T02:32:59.912Z,30.68
2023-03-26T02:35:28.378Z,30.76
2023-03-26T02:37:57.064Z,30.84
2023-03-26T02:40:26.001Z,30.94
2023-03-26T02:42:54.476Z,31.03
2023-03-26T02:45:23.068Z,31.12
2023-03-26T02:47:51.964Z,31.20
2023-03-26T02:50:20.342Z,31.29
2023-03-26T02:52:50.775Z,31.38
2023-03-26T02:55:19.143Z,31.46
2023-03-26T02:57:47.495Z,31.53
2023-03-26T03:00:16.191Z,31.62
2023-03-26T03:02:48.849Z,31.68
2023-03-26T03:05:19.380Z,31.76
2023-03-26T03:07:48.136Z,31.83
2023-03-26T03:10:16.725Z,31.90
2023-03-26T03:12:45.132Z,31.97
2023-03-26T03:15:14.084Z,32.06
2023-03-26T03:17:42.636Z,32.14
2023-03-26T03:20:11.710Z,32.20
2023-03-26T03:22:40.345Z,32.27
2023-03-26T03:25:10.133Z,32.34
2023-03-26T03:27:40.195Z,32.40
2023-03-26T03:30:09.519Z,32.47
2023-03-26T03:32:38.064Z,32.53
2023-03-26T03:35:07.004Z,32.58
2023-03-26T03:37:35.680Z,32.65
2023-03-26T03:40:04.960Z,32.71
2023-03-26T03:42:33.314Z,32.78
2023-03-26T03:45:03.015Z,32.85
2023-03-26T03:47:31.481Z,32.92
2023-03-26T03:50:01.194Z,33.00
2023-03-26T03:52:29.586Z,33.10
2023-03-26T03:55:04.155Z,33.18
2023-03-26T03:57:34.463Z,33.26
2023-03-26T04:00:04.520Z,33.32
2023-03-26T04:02:35.612Z,33.39
2023-03-26T04:05:05.155Z,33.47
2023-03-26T04:07:34.332Z,33.56
2023-03-26T04:10:06.499Z,33.66
2023-03-26T04:12:35.055Z,33.76
2023-03-26T04:15:05.398Z,33.85
2023-03-26T04:17:33.798Z,33.95
2023-03-26T04:20:15.451Z,34.01
2023-03-26T04:22:44.803Z,34.09
2023-03-26T04:25:14.539Z,34.17
2023-03-26T04:27:44.345Z,34.22
2023-03-26T04:30:18.172Z,34.27
2023-03-26T04:32:47.810Z,34.31
2023-03-26T04:35:17.825Z,34.39
2023-03-26T04:37:47.139Z,34.43
2023-03-26T04:40:22.996Z,34.50
2023-03-26T04:42:51.406Z,34.55
2023-03-26T04:45:23.493Z,34.62
2023-03-26T04:47:52.383Z,34.67
2023-03-26T04:50:20.852Z,34.74
2023-03-26T04:52:49.203Z,34.80
2023-03-26T04:55:36.681Z,34.87
2023-03-26T04:58:06.376Z,34.91
2023-03-26T05:00:34.765Z,34.95
2023-03-26T05:03:03.192Z,35.00
2023-03-26T05:05:31.698Z,35.07
2023-03-26T05:08:00.111Z,35.11
2023-03-26T05:10:28.578Z,35.18
2023-03-26T05:12:57.299Z,35.24
2023-03-26T05:15:25.670Z,35.30
2023-03-26T05:17:56.307Z,35.39
2023-03-26T05:20:27.993Z,35.47
2023-03-26T05:22:56.727Z,35.53
2023-03-26T05:25:25.122Z,35.58
2023-03-26T05:27:53.942Z,35.61
2023-03-26T05:30:23.487Z,35.66
2023-03-26T05:32:52.802Z,35.70
2023-03-26T05:35:23.752Z,35.72
2023-03-26T05:37:52.449Z,35.75
2023-03-26T05:40:22.316Z,35.78
2023-03-26T05:42:52.231Z,35.78
2023-03-26T05:45:20.930Z,35.73
2023-03-26T05:47:50.667Z,35.74
2023-03-26T05:50:19.187Z,35.78
2023-03-26T05:52:47.581Z,35.85
2023-03-26T05:55:16.992Z,35.90
2023-03-26T05:57:45.437Z,35.96
2023-03-26T06:00:14.216Z,35.97
2023-03-26T06:02:43.786Z,35.95
2023-03-26T06:05:13.402Z,35.87
2023-03-26T06:07:41.738Z,35.91
2023-03-26T06:10:10.569Z,35.98
2023-03-26T06:12:39.328Z,35.98
2023-03-26T06:15:08.432Z,35.96
2023-03-26T06:17:36.827Z,35.92
2023-03-26T06:20:09.436Z,35.86
2023-03-26T06:22:38.060Z,35.89
2023-03-26T06:25:07.236Z,35.92
2023-03-26T06:27:35.562Z,35.89
2023-03-26T06:30:03.957Z,35.92
2023-03-26T06:32:32.419Z,35.96
2023-03-26T06:35:00.906Z,36.00
2023-03-26T06:37:29.351Z,36.10
2023-03-26T06:39:57.796Z,36.19
2023-03-26T06:43:06.536Z,36.27
2023-03-26T06:45:14.556Z,36.33
2023-03-26T06:47:43.129Z,36.39
2023-03-26T06:50:12.850Z,36.46
2023-03-26T06:52:41.646Z,36.51
2023-03-26T06:55:11.373Z,36.56
2023-03-26T06:57:39.796Z,36.60
2023-03-26T07:00:09.712Z,36.63
2023-03-26T07:02:38.323Z,36.69
2023-03-26T07:05:06.864Z,36.71
2023-03-26T07:07:35.357Z,36.73
2023-03-26T07:10:14.337Z,36.74
2023-03-26T07:12:43.440Z,36.74
2023-03-26T07:15:12.302Z,36.75
2023-03-26T07:17:40.946Z,36.77
2023-03-26T07:20:10.767Z,36.79
2023-03-26T07:22:39.542Z,36.77
2023-03-26T07:25:08.950Z,36.78
2023-03-26T07:28:02.963Z,36.79
2023-03-26T07:30:47.078Z,36.79
2023-03-26T07:33:30.414Z,36.79
2023-03-26T07:36:26.625Z,36.79
2023-03-26T07:39:22.213Z,36.81
2023-03-26T07:42:08.690Z,36.82
2023-03-26T07:44:52.152Z,36.81
2023-03-26T07:47:30.599Z,36.78
2023-03-26T07:49:59.524Z,36.77
2023-03-26T07:52:29.404Z,36.74
2023-03-26T07:54:58.193Z,36.71
2023-03-26T07:57:35.273Z,36.68
2023-03-26T08:00:23.970Z,36.64
2023-03-26T08:03:16.541Z,36.61
2023-03-26T08:05:53.633Z,36.59
2023-03-26T08:08:46.739Z,36.57
2023-03-26T08:11:29.938Z,36.58
2023-03-26T08:14:03.709Z,36.55
2023-03-26T08:16:44.226Z,36.51
2023-03-26T08:19:59.360Z,36.52
2023-03-26T08:22:32.756Z,36.48
2023-03-26T08:25:06.706Z,36.44
2023-03-26T08:27:45.136Z,36.42
2023-03-26T08:30:21.926Z,36.43
2023-03-26T08:33:05.028Z,36.38
2023-03-26T08:35:36.047Z,36.37
2023-03-26T08:38:04.477Z,36.36
2023-03-26T08:41:02.252Z,36.34
2023-03-26T08:44:11.006Z,36.30
2023-03-26T08:47:06.691Z,36.25
2023-03-26T08:50:01.843Z,36.21
2023-03-26T08:52:36.465Z,36.17
2023-03-26T08:55:22.990Z,36.14
2023-03-26T08:58:23.473Z,36.13
2023-03-26T09:01:19.074Z,36.09
2023-03-26T09:03:53.662Z,36.05
2023-03-26T09:06:34.287Z,36.02
2023-03-26T09:09:20.836Z,36.02
2023-03-26T09:12:25.008Z,36.01
2023-03-26T09:15:32.495Z,35.99
2023-03-26T09:18:09.757Z,35.97
2023-03-26T09:20:49.224Z,35.95
2023-03-26T09:23:32.624Z,35.91
2023-03-26T09:26:37.778Z,35.88
2023-03-26T09:29:44.318Z,35.82
2023-03-26T09:32:27.462Z,35.79
2023-03-26T09:35:21.418Z,35.76
2023-03-26T09:37:59.759Z,35.72
2023-03-26T09:40:50.775Z,35.69
2023-03-26T09:43:49.734Z,35.60
2023-03-26T09:46:55.234Z,35.57
2023-03-26T09:49:29.703Z,35.53
2023-03-26T09:52:22.328Z,35.51
2023-03-26T09:55:04.645Z,35.43
2023-03-26T09:58:03.861Z,35.35
2023-03-26T10:00:55.024Z,35.29
2023-03-26T10:03:47.612Z,35.22
2023-03-26T10:06:22.154Z,35.17
2023-03-26T10:09:23.953Z,35.13
2023-03-26T10:11:58.290Z,35.06
2023-03-26T10:14:46.794Z,35.00
2023-03-26T10:17:37.316Z,34.91
2023-03-26T10:20:37.150Z,34.85
2023-03-26T10:23:20.601Z,34.80
2023-03-26T10:25:58.137Z,34.74
2023-03-26T10:28:53.861Z,34.67
2023-03-26T10:31:40.668Z,34.62
2023-03-26T10:34:33.376Z,34.57
2023-03-26T10:37:29.518Z,34.50
2023-03-26T10:40:25.088Z,34.44
2023-03-26T10:43:30.466Z,34.35
2023-03-26T10:46:04.698Z,34.30
2023-03-26T10:49:09.991Z,34.21
2023-03-26T10:51:40.931Z,34.12
2023-03-26T10:54:33.912Z,34.03
2023-03-26T10:57:07.426Z,33.94
2023-03-26T10:59:35.812Z,33.86
2023-03-26T11:02:29.446Z,33.78
2023-03-26T11:05:08.697Z,33.69
2023-03-26T11:07:41.701Z,33.61
2023-03-26T11:10:31.677Z,33.53
2023-03-26T11:13:04.899Z,33.45
2023-03-26T11:16:00.186Z,33.36
2023-03-26T11:18:46.263Z,33.28
2023-03-26T11:21:38.541Z,33.19
2023-03-26T11:24:28.781Z,33.11
2023-03-26T11:27:16.936Z,33.02
2023-03-26T11:29:51.772Z,32.95
2023-03-26T11:32:27.427Z,32.87
2023-03-26T11:34:59.335Z,32.79
2023-03-26T11:37:47.763Z,32.70
2023-03-26T11:40:22.342Z,32.62
2023-03-26T11:42:57.339Z,32.53
2023-03-26T11:45:31.635Z,32.46
2023-03-26T11:48:09.027Z,32.38
2023-03-26T11:50:43.672Z,32.28
2023-03-26T11:53:18.681Z,32.21
2023-03-26T11:56:01.896Z,32.14
2023-03-26T11:58:42.851Z,32.08
2023-03-26T12:01:45.014Z,32.01
2023-03-26T12:04:16.638Z,31.94
2023-03-26T12:07:06.160Z,31.90
2023-03-26T12:09:34.711Z,31.86
2023-03-26T12:12:05.722Z,31.83
2023-03-26T12:14:36.742Z,31.77
2023-03-26T12:17:15.505Z,31.71
2023-03-26T12:19:46.016Z,31.65
2023-03-26T12:22:38.211Z,31.59
2023-03-26T12:25:17.828Z,31.53
2023-03-26T12:27:49.015Z,31.47
2023-03-26T12:30:31.711Z,31.40
2023-03-26T12:33:04.564Z,31.35
2023-03-26T12:35:35.916Z,31.31
2023-03-26T12:38:34.214Z,31.25
2023-03-26T12:44:43.587Z,31.21
2023-03-26T12:44:53.671Z,31.16
2023-03-26T12:47:59.421Z,31.09
2023-03-26T12:50:17.035Z,31.04
2023-03-26T12:53:13.445Z,30.97
2023-03-26T12:55:55.535Z,30.93
2023-03-26T12:58:39.261Z,30.89
2023-03-26T13:01:19.658Z,30.85
2023-03-26T13:03:57.013Z,30.81
2023-03-26T13:07:01.230Z,30.76
2023-03-26T13:10:04.578Z,30.71
2023-03-26T13:12:55.427Z,30.68
2023-03-26T13:15:26.460Z,30.65
2023-03-26T13:18:17.564Z,30.62
2023-03-26T13:20:58.933Z,30.60
2023-03-26T13:23:38.102Z,30.57
2023-03-26T13:26:15.544Z,30.55
2023-03-26T13:28:49.856Z,30.51
2023-03-26T13:31:41.925Z,30.51
2023-03-26T13:34:48.052Z,30.47
2023-03-26T13:37:24.112Z,30.45
2023-03-26T13:40:33.508Z,30.44
2023-03-26T13:43:02.006Z,30.42
2023-03-26T13:45:45.272Z,30.40
2023-03-26T13:48:43.595Z,30.39
2023-03-26T13:51:23.746Z,30.36
2023-03-26T13:54:22.601Z,30.33
2023-03-26T13:57:08.817Z,30.28
2023-03-26T14:00:02.526Z,30.25
2023-03-26T14:03:05.187Z,30.22
2023-03-26T14:05:56.930Z,30.20
2023-03-26T14:08:25.278Z,30.18
2023-03-26T14:11:00.407Z,30.14
2023-03-26T14:14:07.850Z,30.11
2023-03-26T14:16:50.740Z,30.08
2023-03-26T14:19:38.206Z,30.05
2023-03-26T14:22:15.368Z,30.04
2023-03-26T14:24:59.851Z,30.01
2023-03-26T14:27:40.251Z,29.98
2023-03-26T14:30:35.790Z,29.96
2023-03-26T14:33:15.704Z,29.92
2023-03-26T14:36:11.089Z,29.90
2023-03-26T14:39:00.834Z,29.87
2023-03-26T14:41:55.027Z,29.82
2023-03-26T14:45:00.517Z,29.76
2023-03-26T14:47:30.406Z,29.72
2023-03-26T14:50:14.756Z,29.67
2023-03-26T14:53:01.388Z,29.61
2023-03-26T14:55:57.929Z,29.57
2023-03-26T14:58:53.977Z,29.53
2023-03-26T15:01:48.222Z,29.51
2023-03-26T15:04:58.013Z,29.49
2023-03-26T15:07:42.757Z,29.45
2023-03-26T15:10:26.195Z,29.42
2023-03-26T15:13:25.295Z,29.38
2023-03-26T15:16:07.870Z,29.36
2023-03-26T15:18:56.977Z,29.33
2023-03-26T15:21:52.452Z,29.31
2023-03-26T15:24:46.148Z,29.29
2023-03-26T15:27:43.411Z,29.28
2023-03-26T15:30:49.449Z,29.27
2023-03-26T15:33:39.376Z,29.24
2023-03-26T15:36:24.050Z,29.19
2023-03-26T15:39:29.153Z,29.17
2023-03-26T15:42:20.486Z,29.12
2023-03-26T15:45:25.931Z,29.11
2023-03-26T15:48:13.376Z,29.09
2023-03-26T15:51:07.316Z,29.07
2023-03-26T15:54:09.832Z,29.06
2023-03-26T15:56:59.427Z,29.04
2023-03-26T15:59:40.039Z,29.02
2023-03-26T16:02:08.486Z,29.01
2023-03-26T16:05:24.166Z,29.01
2023-03-26T16:08:17.944Z,28.98
2023-03-26T16:11:01.298Z,28.97
2023-03-26T16:13:45.797Z,28.94
2023-03-26T16:16:17.379Z,28.89
2023-03-26T16:19:12.007Z,28.86
2023-03-26T16:22:03.872Z,28.83
2023-03-26T16:24:37.061Z,28.79
2023-03-26T16:27:14.050Z,28.75
2023-03-26T16:30:17.601Z,28.71
2023-03-26T16:32:56.371Z,28.67
2023-03-26T16:36:03.266Z,28.61
2023-03-26T16:39:11.712Z,28.57
2023-03-26T16:41:51.097Z,28.51
2023-03-26T16:44:48.358Z,28.47
2023-03-26T16:47:48.462Z,28.42
2023-03-26T16:50:31.096Z,28.39
2023-03-26T16:53:19.245Z,28.36
2023-03-26T16:55:54.389Z,28.33
2023-03-26T16:58:22.977Z,28.30
2023-03-26T17:01:16.855Z,28.27
2023-03-26T17:03:51.504Z,28.24
2023-03-26T17:06:33.108Z,28.22
2023-03-26T17:09:18.530Z,28.20
2023-03-26T17:11:52.982Z,28.18
2023-03-26T17:14:53.294Z,28.17
2023-03-26T17:17:56.454Z,28.16
2023-03-26T17:20:39.925Z,28.15
2023-03-26T17:23:34.416Z,28.13
2023-03-26T17:26:22.543Z,28.12
2023-03-26T17:29:02.912Z,28.10
2023-03-26T17:31:42.763Z,28.08
2023-03-26T17:34:53.545Z,28.07
2023-03-26T17:37:24.533Z,28.06
2023-03-26T17:39:52.891Z,28.06
2023-03-26T17:42:36.555Z,28.05
2023-03-26T17:45:21.454Z,28.04
2023-03-26T17:47:52.786Z,28.00
2023-03-26T17:50:47.288Z,27.99
2023-03-26T17:53:21.506Z,27.95
2023-03-26T17:55:51.444Z,27.95
2023-03-26T17:59:11.651Z,27.94
2023-03-26T18:01:46.123Z,27.90
2023-03-26T18:04:24.350Z,27.87
2023-03-26T18:07:19.916Z,27.85
2023-03-26T18:10:13.845Z,27.83
2023-03-26T18:13:02.048Z,27.80
2023-03-26T18:15:51.304Z,27.77
2023-03-26T18:18:25.963Z,27.75
2023-03-26T18:20:55.602Z,27.70
2023-03-26T18:23:48.303Z,27.66
2023-03-26T18:26:37.076Z,27.63
2023-03-26T18:29:29.087Z,27.60
2023-03-26T18:32:04.814Z,27.55
2023-03-26T18:34:35.097Z,27.50
2023-03-26T18:37:12.275Z,27.47
2023-03-26T18:39:40.829Z,27.45
2023-03-26T18:42:25.986Z,27.43
2023-03-26T18:44:59.889Z,27.40
2023-03-26T18:47:31.701Z,27.39
2023-03-26T18:50:01.158Z,27.38
2023-03-26T18:52:32.774Z,27.34
2023-03-26T18:55:03.599Z,27.32
2023-03-26T18:57:32.301Z,27.27
2023-03-26T19:00:28.763Z,27.27
2023-03-26T19:03:09.068Z,27.22
2023-03-26T19:05:38.243Z,27.19
2023-03-26T19:08:07.839Z,27.18
2023-03-26T19:10:37.988Z,27.15
2023-03-26T19:13:06.534Z,27.14
2023-03-26T19:15:36.761Z,27.10
2023-03-26T19:18:10.607Z,27.06
2023-03-26T19:20:43.676Z,27.05
2023-03-26T19:23:17.457Z,27.03
2023-03-26T19:25:49.459Z,27.00
2023-03-26T19:28:28.235Z,26.96
2023-03-26T19:31:09.054Z,26.93
2023-03-26T19:33:40.988Z,26.90
2023-03-26T19:36:24.503Z,26.87
2023-03-26T19:38:55.565Z,26.85
2023-03-26T19:41:32.499Z,26.83
2023-03-26T19:44:03.371Z,26.83
2023-03-26T19:46:53.025Z,26.83
2023-03-26T19:49:34.819Z,26.82
2023-03-26T19:52:21.150Z,26.80
2023-03-26T19:54:59.638Z,26.80
2023-03-26T19:57:34.049Z,26.78
2023-03-26T20:00:02.378Z,26.75
2023-03-26T20:02:30.872Z,26.75
2023-03-26T20:04:59.271Z,26.75
2023-03-26T20:07:35.425Z,26.74
2023-03-26T20:10:06.334Z,26.74
2023-03-26T20:12:34.838Z,26.73
2023-03-26T20:15:03.814Z,26.73
2023-03-26T20:17:32.406Z,26.73
2023-03-26T20:20:00.757Z,26.73
2023-03-26T20:22:29.207Z,26.71
2023-03-26T20:24:57.609Z,26.68
2023-03-26T20:27:25.981Z,26.65
2023-03-26T20:29:55.135Z,26.63
2023-03-26T20:32:26.988Z,26.63
2023-03-26T20:34:55.823Z,26.61
2023-03-26T20:37:24.185Z,26.58
2023-03-26T20:39:52.518Z,26.57
2023-03-26T20:42:20.946Z,26.54
2023-03-26T20:44:49.312Z,26.49
2023-03-26T20:47:18.200Z,26.50
2023-03-26T20:49:46.848Z,26.47
2023-03-26T20:52:16.270Z,26.45
2023-03-26T20:54:44.614Z,26.45
2023-03-26T20:57:14.165Z,26.44
2023-03-26T20:59:43.100Z,26.43
2023-03-26T21:02:12.915Z,26.42
2023-03-26T21:04:41.297Z,26.41
2023-03-26T21:07:18.340Z,26.40
2023-03-26T21:09:50.160Z,26.39
2023-03-26T21:12:43.111Z,26.37
2023-03-26T21:15:22.433Z,26.35
2023-03-26T21:17:53.161Z,26.34
2023-03-26T21:20:22.726Z,26.33
2023-03-26T21:23:18.040Z,26.33
2023-03-26T21:26:02.237Z,26.32
2023-03-26T21:28:50.224Z,26.30
2023-03-26T21:31:21.351Z,26.29
2023-03-26T21:33:51.457Z,26.28
2023-03-26T21:36:21.085Z,26.27
2023-03-26T21:38:51.438Z,26.25
2023-03-26T21:41:32.275Z,26.24
2023-03-26T21:44:01.380Z,26.22
2023-03-26T21:46:30.897Z,26.21
2023-03-26T21:48:59.569Z,26.18
2023-03-26T21:51:28.656Z,26.17
2023-03-26T21:53:57.407Z,26.17
2023-03-26T21:56:50.805Z,26.16
2023-03-26T22:00:01.778Z,26.16
2023-03-26T22:02:42.574Z,26.14
2023-03-26T22:05:20.783Z,26.10
2023-03-26T22:07:58.033Z,26.08
2023-03-26T22:10:26.643Z,26.06
2023-03-26T22:12:55.018Z,26.03
2023-03-26T22:15:23.380Z,26.01
2023-03-26T22:17:54.885Z,25.99
2023-03-26T22:20:28.920Z,25.99
2023-03-26T22:22:57.648Z,25.98
2023-03-26T22:25:26.003Z,25.97
2023-03-26T22:27:54.815Z,25.95
2023-03-26T22:30:23.235Z,25.94
2023-03-26T22:32:52.627Z,25.91
2023-03-26T22:35:21.454Z,25.90
2023-03-26T22:37:49.915Z,25.88
2023-03-26T22:40:18.867Z,25.88
2023-03-26T22:42:47.224Z,25.88
2023-03-26T22:45:15.767Z,25.87
2023-03-26T22:47:44.273Z,25.85
2023-03-26T22:50:12.979Z,25.85
2023-03-26T22:52:42.029Z,25.83
2023-03-26T22:55:11.962Z,25.82
2023-03-26T22:57:40.711Z,25.82
2023-03-26T23:00:17.256Z,25.81
2023-03-26T23:02:48.468Z,25.80
2023-03-26T23:05:19.659Z,25.80
2023-03-26T23:07:49.822Z,25.79
2023-03-26T23:10:18.186Z,25.77
2023-03-26T23:12:46.589Z,25.77
2023-03-26T23:15:15.036Z,25.76
2023-03-26T23:17:43.421Z,25.76
2023-03-26T23:20:18.615Z,25.76
2023-03-26T23:22:47.389Z,25.77
2023-03-26T23:25:16.693Z,25.77
2023-03-26T23:27:45.585Z,25.78
2023-03-26T23:30:15.999Z,25.80
2023-03-26T23:32:45.028Z,25.79
2023-03-26T23:35:13.400Z,25.82
2023-03-26T23:37:43.145Z,25.83
2023-03-26T23:40:12.675Z,25.86
2023-03-26T23:42:40.994Z,25.88
2023-03-26T23:45:10.033Z,25.93
2023-03-26T23:47:42.994Z,25.96
2023-03-26T23:50:12.067Z,26.01
2023-03-26T23:52:40.437Z,26.04
2023-03-26T23:55:09.650Z,26.08
2023-03-26T23:57:38.172Z,26.12
